Time;durP1;ratioP1;P1;durP2;ratioP2;P2;SDS_P1;SDS_P2;PMS_P1;PMS_P2;Temp;Humidity;BMP_temperature;BMP_pressure;BME280_temperature;BME280_humidity;BME280_pressure;Samples;Min_cycle;Max_cycle;Signal;HPM_P1;HPM_P2
2023/07/09 00:01:44;;;;;;;3.20;2.90;;;;;;;18.05;76.20;99145.75;4469403;32;20564;-66
2023/07/09 00:04:12;;;;;;;8.27;3.00;;;;;;;18.08;75.86;99148.06;4469233;32;20175;-65
2023/07/09 00:06:39;;;;;;;17.23;4.82;;;;;;;18.07;75.92;99146.41;4469472;32;20093;-66
2023/07/09 00:09:13;;;;;;;4.20;2.83;;;;;;;18.08;75.84;99150.72;4468089;32;20085;-66
2023/07/09 00:11:42;;;;;;;4.43;2.45;;;;;;;18.06;76.00;99144.75;4468133;32;20116;-66
2023/07/09 00:14:11;;;;;;;3.85;2.83;;;;;;;18.09;75.73;99149.69;4478474;32;20118;-66
2023/07/09 00:16:39;;;;;;;6.90;2.90;;;;;;;18.09;75.71;99155.00;4484605;32;20116;-66
2023/07/09 00:19:16;;;;;;;4.35;2.53;;;;;;;18.12;75.15;99159.12;4484973;32;20493;-66
2023/07/09 00:21:45;;;;;;;9.43;3.35;;;;;;;18.14;75.05;99157.13;4484959;31;20091;-66
2023/07/09 00:24:13;;;;;;;4.18;2.87;;;;;;;18.11;75.45;99152.16;4484923;31;20096;-66
2023/07/09 00:26:40;;;;;;;10.05;3.75;;;;;;;18.12;75.46;99151.19;4484786;31;20476;-66
2023/07/09 00:29:10;;;;;;;5.78;2.70;;;;;;;18.12;75.79;99152.00;4484698;31;20152;-66
2023/07/09 00:31:40;;;;;;;3.10;2.55;;;;;;;18.08;76.49;99148.88;4484669;31;20561;-66
2023/07/09 00:34:11;;;;;;;4.05;2.72;;;;;;;18.05;77.15;99148.41;4485178;31;20107;-66
2023/07/09 00:36:45;;;;;;;6.20;3.37;;;;;;;18.00;77.76;99150.75;4484839;32;20586;-66
2023/07/09 00:39:23;;;;;;;5.60;2.90;;;;;;;17.96;78.18;99147.63;4484726;31;20400;-66
2023/07/09 00:41:50;;;;;;;4.68;3.22;;;;;;;17.89;78.60;99151.97;4484673;32;20115;-66
2023/07/09 00:44:30;;;;;;;3.27;2.70;;;;;;;17.83;78.94;99150.81;4484821;31;20085;-65
2023/07/09 00:47:01;;;;;;;4.12;2.60;;;;;;;17.78;79.85;99161.13;4484574;31;20103;-66
2023/07/09 00:49:34;;;;;;;4.00;2.83;;;;;;;17.67;81.04;99148.28;4484479;31;20096;-66
2023/07/09 00:52:24;;;;;;;4.75;2.87;;;;;;;17.56;80.77;99146.81;4485448;31;20123;-66
2023/07/09 00:54:51;;;;;;;6.03;2.97;;;;;;;17.47;81.58;99154.00;4485175;32;20567;-66
2023/07/09 00:57:22;;;;;;;5.32;3.28;;;;;;;17.42;81.54;99145.72;4484940;32;20100;-65
2023/07/09 00:59:53;;;;;;;5.45;2.90;;;;;;;17.43;81.98;99155.34;4485520;32;20076;-66
2023/07/09 01:02:23;;;;;;;8.77;3.08;;;;;;;17.37;83.46;99146.25;4485359;32;20158;-65
2023/07/09 01:04:55;;;;;;;6.15;3.40;;;;;;;17.25;83.94;99155.56;4486767;31;20107;-66
2023/07/09 01:07:23;;;;;;;4.35;2.92;;;;;;;17.18;85.32;99147.50;4485411;32;20158;-66
2023/07/09 01:09:53;;;;;;;5.05;2.85;;;;;;;17.10;86.90;99142.19;4486526;31;20076;-66
2023/07/09 01:12:21;;;;;;;3.33;2.65;;;;;;;17.10;85.53;99155.44;4486421;32;20112;-66
2023/07/09 01:14:51;;;;;;;3.92;3.20;;;;;;;17.12;85.38;99148.16;4485203;32;20160;-66
2023/07/09 01:17:19;;;;;;;6.80;2.97;;;;;;;17.13;85.32;99147.16;4486295;32;20080;-66
2023/07/09 01:19:50;;;;;;;6.20;3.12;;;;;;;17.20;85.39;99148.13;4486483;31;20120;-66
2023/07/09 01:22:19;;;;;;;6.95;3.20;;;;;;;17.19;85.61;99141.19;4486129;31;20461;-66
2023/07/09 01:25:05;;;;;;;5.97;3.17;;;;;;;17.20;86.02;99150.78;4486371;32;20089;-66
2023/07/09 01:27:39;;;;;;;4.22;3.20;;;;;;;17.22;86.53;99147.97;4486248;32;20145;-66
2023/07/09 01:30:14;;;;;;;4.23;3.30;;;;;;;17.18;86.83;99142.19;4486469;31;20111;-65
2023/07/09 01:32:45;;;;;;;9.95;3.25;;;;;;;17.16;87.24;99146.81;4486541;31;20093;-66
2023/07/09 01:35:15;;;;;;;3.22;2.72;;;;;;;17.13;87.46;99147.16;4486322;31;20092;-66
2023/07/09 01:37:43;;;;;;;3.70;2.72;;;;;;;17.11;87.08;99149.16;4486101;32;20126;-66
2023/07/09 01:40:12;;;;;;;5.05;3.60;;;;;;;17.08;86.80;99152.16;4486481;31;20518;-66
2023/07/09 01:43:00;;;;;;;5.95;3.30;;;;;;;17.13;86.40;99146.34;4486124;31;20123;-66
2023/07/09 01:45:28;;;;;;;6.10;3.40;;;;;;;17.13;87.01;99156.94;4486260;31;20080;-66
2023/07/09 01:47:55;;;;;;;4.07;2.83;;;;;;;17.11;86.75;99154.44;4485892;31;20088;-65
2023/07/09 01:50:24;;;;;;;6.03;2.90;;;;;;;17.11;86.88;99159.75;4486031;32;20114;-66
2023/07/09 01:52:53;;;;;;;6.95;3.05;;;;;;;17.10;87.34;99163.37;4486116;31;20566;-66
2023/07/09 01:55:20;;;;;;;8.55;3.40;;;;;;;17.08;87.06;99164.53;4484645;32;20101;-66
2023/07/09 01:57:50;;;;;;;3.72;3.15;;;;;;;17.08;87.49;99164.53;4485948;31;20093;-66
2023/07/09 02:00:19;;;;;;;5.12;3.17;;;;;;;17.04;88.01;99166.69;4485856;31;20110;-66
2023/07/09 02:02:47;;;;;;;4.37;3.00;;;;;;;17.06;87.92;99163.88;4485435;31;20506;-66
2023/07/09 02:05:17;;;;;;;5.00;3.05;;;;;;;17.01;87.89;99161.75;4485881;32;20088;-66
2023/07/09 02:07:46;;;;;;;4.85;3.28;;;;;;;17.00;87.39;99168.88;4485785;31;20111;-66
2023/07/09 02:10:17;;;;;;;4.50;3.25;;;;;;;16.94;88.03;99172.19;4485886;31;20104;-66
2023/07/09 02:12:45;;;;;;;5.68;3.20;;;;;;;16.88;88.67;99169.38;4485685;31;20107;-66
2023/07/09 02:15:13;;;;;;;6.50;3.35;;;;;;;16.84;89.28;99171.50;4486017;31;20122;-66
2023/07/09 02:17:41;;;;;;;4.28;3.03;;;;;;;16.81;89.62;99171.84;4485493;31;20488;-66
2023/07/09 02:20:09;;;;;;;4.82;3.30;;;;;;;16.76;90.08;99172.34;4485771;31;20126;-66
2023/07/09 02:22:38;;;;;;;9.45;3.50;;;;;;;16.74;90.33;99174.31;4485918;31;20540;-66
2023/07/09 02:25:06;;;;;;;5.25;4.10;;;;;;;16.67;90.81;99178.66;4485779;31;20088;-66
2023/07/09 02:27:36;;;;;;;5.37;3.42;;;;;;;16.65;91.02;99175.31;4485635;32;20096;-66
2023/07/09 02:30:06;;;;;;;4.53;3.28;;;;;;;16.64;91.50;99177.16;4485698;32;20571;-66
2023/07/09 02:32:34;;;;;;;4.47;3.55;;;;;;;16.55;92.01;99177.31;4486041;31;20131;-66
2023/07/09 02:35:01;;;;;;;9.68;4.20;;;;;;;16.57;91.82;99180.63;4485752;32;20118;-66
2023/07/09 02:37:28;;;;;;;5.90;3.50;;;;;;;16.54;91.21;99183.59;4485637;32;20458;-66
2023/07/09 02:39:57;;;;;;;4.57;3.35;;;;;;;16.55;91.78;99180.78;4485671;32;20462;-66
2023/07/09 02:42:24;;;;;;;6.50;3.53;;;;;;;16.54;92.33;99179.13;4485724;31;20096;-66
2023/07/09 02:44:51;;;;;;;4.12;3.28;;;;;;;16.56;92.32;99173.66;4485764;31;20100;-66
2023/07/09 02:47:19;;;;;;;7.80;3.55;;;;;;;16.54;92.99;99179.13;4485923;31;20563;-66
2023/07/09 02:49:47;;;;;;;7.03;4.53;;;;;;;16.57;93.47;99173.50;4485538;31;20092;-66
2023/07/09 02:52:15;;;;;;;4.45;3.03;;;;;;;16.54;94.64;99178.31;4485644;32;20157;-66
2023/07/09 02:54:43;;;;;;;5.18;3.30;;;;;;;16.56;94.73;99174.50;4485426;31;20088;-66
2023/07/09 02:57:10;;;;;;;4.65;3.40;;;;;;;16.57;94.49;99183.28;4485641;32;20105;-66
2023/07/09 02:59:38;;;;;;;5.50;3.47;;;;;;;16.57;94.31;99180.63;4485425;31;20474;-66
2023/07/09 03:02:06;;;;;;;10.07;3.85;;;;;;;16.57;94.22;99180.63;4485389;31;20092;-66
2023/07/09 03:04:33;;;;;;;6.53;3.90;;;;;;;16.60;94.27;99185.59;4485457;31;20121;-66
2023/07/09 03:07:01;;;;;;;6.35;3.72;;;;;;;16.62;94.53;99181.78;4485483;32;20143;-66
2023/07/09 03:09:29;;;;;;;10.60;3.60;;;;;;;16.60;94.86;99183.75;4485549;32;20093;-66
2023/07/09 03:11:57;;;;;;;12.18;3.70;;;;;;;16.58;95.79;99187.56;4485684;31;20119;-66
2023/07/09 03:14:24;;;;;;;7.15;3.83;;;;;;;16.55;95.47;99193.16;4484615;32;20122;-66
2023/07/09 03:16:51;;;;;;;6.93;3.60;;;;;;;16.55;95.56;99188.72;4485057;31;20097;-66
2023/07/09 03:19:20;;;;;;;8.95;3.55;;;;;;;16.62;95.41;99183.59;4485190;31;20104;-66
2023/07/09 03:21:47;;;;;;;7.40;3.55;;;;;;;16.64;94.91;99189.56;4485449;31;20161;-66
2023/07/09 03:24:18;;;;;;;8.00;3.90;;;;;;;16.74;94.76;99192.03;4485245;31;20119;-66
2023/07/09 03:26:46;;;;;;;5.45;3.47;;;;;;;16.80;94.50;99194.00;4485308;31;20080;-66
2023/07/09 03:29:14;;;;;;;5.07;3.40;;;;;;;16.83;94.26;99194.47;4485111;31;20499;-66
2023/07/09 03:31:43;;;;;;;4.18;3.00;;;;;;;16.87;94.32;99204.78;4485368;32;20123;-66
2023/07/09 03:34:10;;;;;;;5.57;3.53;;;;;;;16.95;93.91;99202.94;4485100;31;20124;-65
2023/07/09 03:36:37;;;;;;;3.83;3.08;;;;;;;17.01;93.60;99201.44;4485218;32;20411;-65
2023/07/09 03:39:06;;;;;;;5.25;3.45;;;;;;;17.09;93.30;99198.78;4485079;31;20144;-66
2023/07/09 03:41:33;;;;;;;7.93;3.95;;;;;;;17.18;93.06;99205.72;4485554;31;20092;-66
2023/07/09 03:44:01;;;;;;;3.67;3.15;;;;;;;17.26;92.55;99201.37;4485029;31;20580;-66
2023/07/09 03:46:29;;;;;;;4.05;3.28;;;;;;;17.35;92.54;99203.88;4485302;32;20097;-66
2023/07/09 03:48:58;;;;;;;5.72;3.25;;;;;;;17.47;91.93;99201.69;4484960;32;20169;-66
2023/07/09 03:51:26;;;;;;;11.50;3.17;;;;;;;17.54;89.64;99199.97;4485035;31;20092;-66
2023/07/09 03:53:54;;;;;;;4.80;3.15;;;;;;;17.63;89.54;99195.47;4485006;31;20101;-66
2023/07/09 03:56:22;;;;;;;5.55;3.42;;;;;;;17.71;88.95;99197.25;4485231;32;20139;-66
2023/07/09 03:58:49;;;;;;;5.95;4.03;;;;;;;17.78;88.54;99198.22;4485322;31;20119;-66
2023/07/09 04:01:17;;;;;;;8.25;3.55;;;;;;;17.98;87.94;99208.44;4485137;31;20414;-66
2023/07/09 04:03:45;;;;;;;6.55;3.62;;;;;;;18.12;86.65;99197.06;4485272;31;20096;-66
2023/07/09 04:06:15;;;;;;;4.00;3.05;;;;;;;18.23;86.77;99191.38;4485290;31;20562;-66
2023/07/09 04:08:44;;;;;;;5.45;3.40;;;;;;;18.36;86.34;99196.06;4485097;32;20114;-66
2023/07/09 04:11:11;;;;;;;4.70;3.00;;;;;;;18.48;85.72;99203.63;4485004;31;20180;-66
2023/07/09 04:13:38;;;;;;;4.90;3.35;;;;;;;18.58;85.62;99198.91;4485007;32;20092;-66
2023/07/09 04:16:06;;;;;;;4.87;3.20;;;;;;;18.59;85.93;99204.03;4484787;31;20220;-66
2023/07/09 04:18:35;;;;;;;4.78;3.33;;;;;;;18.57;87.26;99203.38;4485119;31;20119;-66
2023/07/09 04:21:03;;;;;;;5.12;2.90;;;;;;;18.56;88.20;99207.06;4485315;32;20114;-66
2023/07/09 04:23:31;;;;;;;5.40;3.00;;;;;;;18.59;88.14;99204.03;4484981;31;20548;-66
2023/07/09 04:26:02;;;;;;;4.75;3.10;;;;;;;18.59;87.61;99201.41;4484639;31;20619;-66
2023/07/09 04:28:31;;;;;;;4.32;3.00;;;;;;;18.62;87.71;99206.34;4484800;31;20081;-66
2023/07/09 04:30:58;;;;;;;5.53;3.20;;;;;;;18.75;86.93;99202.25;4484887;32;20130;-66
2023/07/09 04:33:25;;;;;;;4.25;3.17;;;;;;;18.95;86.18;99198.09;4485002;31;20092;-66
2023/07/09 04:35:52;;;;;;;5.32;2.90;;;;;;;19.21;84.46;99201.34;4485100;31;20107;-66
2023/07/09 04:38:20;;;;;;;5.28;3.03;;;;;;;19.51;82.54;99194.19;4484958;31;20167;-66
2023/07/09 04:40:47;;;;;;;6.07;2.90;;;;;;;19.81;78.70;99194.19;4484521;31;20088;-66
2023/07/09 04:43:14;;;;;;;6.87;3.65;;;;;;;20.10;76.56;99192.47;4484787;32;20820;-66
2023/07/09 04:45:42;;;;;;;6.45;3.40;;;;;;;20.40;75.54;99198.50;4484746;32;20096;-66
2023/07/09 04:48:09;;;;;;;5.55;3.28;;;;;;;20.69;74.67;99202.88;4484369;32;20487;-66
2023/07/09 04:50:37;;;;;;;3.70;2.95;;;;;;;20.97;72.99;99202.09;4484480;31;20408;-66
2023/07/09 04:53:04;;;;;;;5.55;3.40;;;;;;;21.21;72.19;99203.47;4484470;32;20116;-66
2023/07/09 04:55:32;;;;;;;4.15;2.95;;;;;;;21.51;71.01;99205.09;4484621;32;20564;-66
2023/07/09 04:57:59;;;;;;;4.72;2.72;;;;;;;21.77;69.38;99205.22;4484432;32;20144;-66
2023/07/09 05:00:26;;;;;;;3.35;2.62;;;;;;;22.06;68.19;99213.94;4484384;32;20573;-66
2023/07/09 05:02:54;;;;;;;4.68;3.30;;;;;;;22.28;67.16;99216.44;4484479;31;20088;-66
2023/07/09 05:05:23;;;;;;;6.10;3.35;;;;;;;22.51;66.17;99210.75;4484262;31;20100;-66
2023/07/09 05:07:50;;;;;;;4.93;3.45;;;;;;;22.72;66.05;99209.75;4484591;31;20089;-66
2023/07/09 05:10:18;;;;;;;4.30;2.90;;;;;;;22.92;62.72;99216.94;4484164;32;20080;-66
2023/07/09 05:12:54;;;;;;;3.35;2.60;;;;;;;23.18;62.12;99216.94;4484074;31;20126;-66
2023/07/09 05:15:22;;;;;;;4.32;2.80;;;;;;;23.36;59.12;99216.28;4484276;31;20096;-66
2023/07/09 05:17:49;;;;;;;5.00;3.00;;;;;;;23.52;56.74;99211.50;4484206;31;20119;-66
2023/07/09 05:20:16;;;;;;;8.05;2.97;;;;;;;23.67;55.57;99228.12;4483974;32;20096;-66
2023/07/09 05:22:44;;;;;;;5.82;2.70;;;;;;;23.86;53.54;99218.41;4484211;31;20118;-66
2023/07/09 05:25:12;;;;;;;5.75;2.83;;;;;;;24.02;52.35;99216.28;4483829;32;20093;-66
2023/07/09 05:27:39;;;;;;;4.90;2.70;;;;;;;24.00;50.37;99218.34;4484057;31;20108;-66
2023/07/09 05:30:07;;;;;;;5.07;2.62;;;;;;;24.08;50.48;99226.13;4483872;31;20754;-66
2023/07/09 05:32:36;;;;;;;3.33;2.47;;;;;;;24.17;50.50;99224.84;4484128;31;20496;-66
2023/07/09 05:35:04;;;;;;;5.32;2.90;;;;;;;24.31;49.26;99222.09;4483948;31;20164;-66
2023/07/09 05:37:32;;;;;;;5.43;2.60;;;;;;;24.49;49.23;99222.16;4483761;32;20123;-66
2023/07/09 05:39:59;;;;;;;4.03;3.15;;;;;;;24.60;48.31;99215.31;4485795;31;20092;-66
2023/07/09 05:42:26;;;;;;;8.27;2.90;;;;;;;24.64;47.21;99227.25;4486006;31;20096;-66
2023/07/09 05:44:54;;;;;;;4.72;2.95;;;;;;;24.68;46.96;99220.41;4486220;32;20155;-66
2023/07/09 05:47:21;;;;;;;3.83;2.70;;;;;;;24.74;47.24;99229.41;4486102;32;20143;-66
2023/07/09 05:49:50;;;;;;;4.78;2.85;;;;;;;24.86;45.46;99233.06;4485877;31;20517;-66
2023/07/09 05:52:19;;;;;;;3.97;2.72;;;;;;;25.08;45.96;99227.28;4485756;32;20160;-66
2023/07/09 05:54:52;;;;;;;4.50;2.80;;;;;;;25.28;45.99;99227.91;4485761;31;20084;-66
2023/07/09 05:57:19;;;;;;;10.45;2.90;;;;;;;25.41;45.10;99236.91;4485878;31;20084;-66
2023/07/09 05:59:47;;;;;;;3.58;2.78;;;;;;;25.27;45.74;99228.97;4485940;31;20115;-66
2023/07/09 06:02:16;;;;;;;7.40;2.65;;;;;;;25.27;44.23;99237.00;4485691;31;20092;-66
2023/07/09 06:04:45;;;;;;;5.18;2.58;;;;;;;25.30;45.66;99238.47;4485845;31;20116;-66
2023/07/09 06:07:13;;;;;;;5.07;3.00;;;;;;;25.53;46.72;99236.97;4485736;31;20114;-66
2023/07/09 06:09:41;;;;;;;4.47;2.90;;;;;;;25.56;44.98;99239.22;4485956;31;20122;-66
2023/07/09 06:12:09;;;;;;;6.97;3.12;;;;;;;25.57;46.26;99232.81;4486070;31;20473;-66
2023/07/09 06:14:37;;;;;;;6.07;2.97;;;;;;;25.55;46.05;99235.72;4485831;31;20092;-66
2023/07/09 06:17:04;;;;;;;5.62;2.90;;;;;;;25.66;43.39;99242.19;4485653;31;20112;-66
2023/07/09 06:19:32;;;;;;;3.25;2.60;;;;;;;25.56;43.79;99240.03;4485735;31;20100;-66
2023/07/09 06:22:00;;;;;;;4.72;2.78;;;;;;;25.77;42.45;99243.28;4485616;32;20115;-66
2023/07/09 06:24:27;;;;;;;3.97;2.37;;;;;;;25.80;42.22;99243.69;4485805;31;20092;-66
2023/07/09 06:26:55;;;;;;;4.60;2.53;;;;;;;25.81;42.05;99241.81;4485641;31;20541;-66
2023/07/09 06:29:23;;;;;;;5.25;3.12;;;;;;;25.89;40.79;99251.41;4485798;32;20100;-66
2023/07/09 06:31:50;;;;;;;5.45;2.65;;;;;;;25.85;41.19;99245.69;4485612;31;20223;-66
2023/07/09 06:34:18;;;;;;;6.32;3.45;;;;;;;25.85;42.17;99243.00;4485799;32;20156;-66
2023/07/09 06:36:46;;;;;;;5.35;3.10;;;;;;;25.80;42.33;99251.75;4485529;31;20100;-66
2023/07/09 06:39:13;;;;;;;5.97;2.87;;;;;;;25.81;42.43;99249.84;4485677;31;20096;-66
2023/07/09 06:41:41;;;;;;;5.95;3.22;;;;;;;25.89;42.18;99246.87;4485462;31;20103;-66
2023/07/09 06:44:09;;;;;;;8.60;2.87;;;;;;;26.01;42.83;99250.47;4485708;31;20586;-66
2023/07/09 06:46:37;;;;;;;4.22;3.08;;;;;;;26.02;41.78;99251.28;4485577;31;20402;-66
2023/07/09 06:49:08;;;;;;;3.85;2.65;;;;;;;26.07;41.63;99250.59;4485357;32;20092;-66
2023/07/09 06:51:35;;;;;;;6.22;2.75;;;;;;;26.16;41.17;99251.91;4485388;31;20160;-66
2023/07/09 06:54:04;;;;;;;4.35;2.95;;;;;;;26.21;42.61;99255.56;4485528;32;20519;-66
2023/07/09 06:56:32;;;;;;;4.55;2.90;;;;;;;26.29;42.25;99246.37;4485229;31;20154;-66
2023/07/09 06:58:59;;;;;;;8.68;3.28;;;;;;;26.41;43.23;99246.41;4485529;32;20123;-66
2023/07/09 07:01:26;;;;;;;3.20;2.53;;;;;;;26.51;42.25;99251.22;4485613;31;20144;-66
2023/07/09 07:03:54;;;;;;;5.07;3.30;;;;;;;26.37;40.35;99251.44;4485414;32;20435;-66
2023/07/09 07:06:22;;;;;;;3.45;2.78;;;;;;;26.44;42.71;99250.53;4485484;31;20469;-66
2023/07/09 07:08:50;;;;;;;5.25;2.65;;;;;;;26.57;42.31;99253.00;4485332;32;20586;-66
2023/07/09 07:11:17;;;;;;;4.22;2.92;;;;;;;26.72;40.90;99256.13;4485471;31;20462;-66
2023/07/09 07:13:46;;;;;;;4.25;2.67;;;;;;;26.86;41.80;99251.34;4485530;31;20093;-66
2023/07/09 07:16:13;;;;;;;3.15;2.42;;;;;;;27.00;42.47;99251.94;4485366;31;20084;-66
2023/07/09 07:18:41;;;;;;;4.20;2.87;;;;;;;27.19;41.95;99259.88;4485225;32;20104;-66
2023/07/09 07:21:08;;;;;;;4.53;2.72;;;;;;;27.13;41.98;99248.19;4485293;31;20753;-66
2023/07/09 07:23:36;;;;;;;6.35;3.12;;;;;;;27.11;41.25;99244.91;4485363;32;20096;-66
2023/07/09 07:26:04;;;;;;;4.72;3.00;;;;;;;27.12;44.91;99251.09;4485562;31;20141;-66
2023/07/09 07:28:33;;;;;;;5.80;2.70;;;;;;;27.12;44.11;99261.84;4485215;31;20088;-66
2023/07/09 07:31:03;;;;;;;4.10;3.00;;;;;;;27.01;43.98;99252.75;4485348;31;20096;-66
2023/07/09 07:33:32;;;;;;;5.87;3.28;;;;;;;27.18;44.59;99251.00;4485383;32;20084;-66
2023/07/09 07:35:59;;;;;;;4.57;3.15;;;;;;;27.35;44.12;99253.81;4485491;31;20085;-66
2023/07/09 07:38:47;;;;;;;7.50;3.20;;;;;;;27.35;44.05;99251.12;4485081;31;20119;-66
2023/07/09 07:41:14;;;;;;;3.33;2.67;;;;;;;27.29;42.82;99248.53;4485429;31;20092;-66
2023/07/09 07:43:41;;;;;;;6.87;3.42;;;;;;;27.40;42.20;99248.56;4485234;32;20211;-66
2023/07/09 07:46:09;;;;;;;5.82;3.80;;;;;;;27.47;41.79;99256.50;4485241;32;20118;-66
2023/07/09 07:48:36;;;;;;;6.68;3.50;;;;;;;27.66;42.80;99254.50;4484888;31;20122;-66
2023/07/09 07:51:04;;;;;;;6.25;3.40;;;;;;;27.60;41.99;99248.19;4485123;31;20117;-66
2023/07/09 07:53:32;;;;;;;9.50;2.83;;;;;;;27.74;41.78;99248.75;4485071;31;20092;-66
2023/07/09 07:56:02;;;;;;;6.00;3.17;;;;;;;27.80;41.07;99255.06;4485183;32;20097;-66
2023/07/09 07:58:31;;;;;;;10.45;2.92;;;;;;;28.04;41.02;99255.00;4484992;31;20262;-66
2023/07/09 08:00:58;;;;;;;3.47;2.95;;;;;;;28.08;40.89;99256.97;4484459;31;20108;-66
2023/07/09 08:03:26;;;;;;;4.85;3.08;;;;;;;28.32;41.08;99256.88;4484896;31;20092;-66
2023/07/09 08:05:54;;;;;;;3.05;2.70;;;;;;;28.23;39.25;99253.75;4485255;31;20080;-66
2023/07/09 08:08:21;;;;;;;5.60;3.30;;;;;;;28.22;39.57;99256.69;4485396;31;20175;-66
2023/07/09 08:10:50;;;;;;;4.97;2.85;;;;;;;28.08;39.62;99253.47;4485118;31;20667;-66
2023/07/09 08:13:18;;;;;;;4.50;3.00;;;;;;;28.29;39.03;99252.78;4484919;32;20092;-66
2023/07/09 08:15:46;;;;;;;3.17;2.78;;;;;;;28.21;37.51;99250.47;4485049;31;20092;-66
2023/07/09 08:18:14;;;;;;;4.10;3.00;;;;;;;28.34;38.51;99252.03;4484633;32;20134;-66
2023/07/09 08:20:44;;;;;;;2.78;2.28;;;;;;;28.30;36.63;99248.22;4485055;31;20092;-66
2023/07/09 08:23:12;;;;;;;3.60;2.70;;;;;;;28.44;36.85;99249.53;4484674;31;20444;-66
2023/07/09 08:25:40;;;;;;;5.82;2.90;;;;;;;28.54;36.02;99248.09;4484745;31;20097;-66
2023/07/09 08:28:09;;;;;;;4.18;2.85;;;;;;;28.59;34.12;99248.19;4484701;31;20096;-66
2023/07/09 08:30:36;;;;;;;6.55;2.75;;;;;;;28.64;36.33;99242.91;4485129;31;20123;-66
2023/07/09 08:33:03;;;;;;;3.55;2.70;;;;;;;28.56;34.82;99241.41;4484942;31;20199;-66
2023/07/09 08:35:33;;;;;;;3.60;2.60;;;;;;;28.65;35.22;99236.47;4484681;31;20096;-66
2023/07/09 08:38:04;;;;;;;5.40;2.75;;;;;;;28.65;35.02;99244.53;4484882;31;20149;-66
2023/07/09 08:40:31;;;;;;;4.60;2.83;;;;;;;28.53;33.94;99247.28;4484614;32;20088;-66
2023/07/09 08:43:05;;;;;;;2.83;2.53;;;;;;;28.67;34.96;99243.22;4484818;31;20103;-66
2023/07/09 08:45:49;;;;;;;5.25;2.67;;;;;;;28.82;34.99;99239.94;4483464;32;20103;-66
2023/07/09 08:48:29;;;;;;;5.12;2.55;;;;;;;28.81;33.83;99241.03;4483170;32;20440;-66
2023/07/09 08:51:29;;;;;;;5.70;3.00;;;;;;;28.83;34.94;99241.59;4479747;32;20096;-66
2023/07/09 08:53:58;;;;;;;3.50;2.65;;;;;;;28.90;35.97;99246.81;4467238;32;20089;-66
2023/07/09 08:56:27;;;;;;;4.28;2.53;;;;;;;28.91;34.33;99236.88;4469006;32;20092;-66
2023/07/09 08:58:56;;;;;;;3.50;2.50;;;;;;;28.90;33.19;99244.13;4467281;32;20100;-66
2023/07/09 09:01:27;;;;;;;3.25;2.50;;;;;;;29.02;32.76;99241.34;4467602;32;20132;-66
2023/07/09 09:04:13;;;;;;;4.18;2.50;;;;;;;29.22;33.37;99242.72;4468590;32;20084;-66
2023/07/09 09:06:42;;;;;;;2.90;2.37;;;;;;;29.22;32.16;99240.84;4467460;32;20176;-66
2023/07/09 09:09:31;;;;;;;5.70;2.60;;;;;;;29.37;30.75;99237.53;4467142;32;20130;-66
2023/07/09 09:12:20;;;;;;;5.75;2.60;;;;;;;29.24;33.04;99240.59;4468782;32;20111;-66
2023/07/09 09:14:59;;;;;;;4.25;2.70;;;;;;;29.38;32.50;99236.47;4483340;32;20167;-66
2023/07/09 09:17:28;;;;;;;2.53;2.30;;;;;;;29.59;32.98;99237.56;4484882;32;20111;-66
2023/07/09 09:20:03;;;;;;;5.47;2.92;;;;;;;29.59;33.79;99242.97;4486182;32;20096;-66
2023/07/09 09:22:43;;;;;;;3.17;2.40;;;;;;;29.66;33.90;99235.50;4486330;31;20080;-66
2023/07/09 09:25:33;;;;;;;4.82;2.47;;;;;;;29.52;33.15;99239.63;4485108;32;20139;-66
2023/07/09 09:28:01;;;;;;;4.93;2.80;;;;;;;29.58;32.86;99233.22;4484747;32;20119;-66
2023/07/09 09:30:30;;;;;;;4.60;2.67;;;;;;;29.81;32.14;99234.06;4486012;31;20446;-66
2023/07/09 09:33:02;;;;;;;5.95;2.87;;;;;;;29.68;33.48;99235.25;4485998;31;20217;-66
2023/07/09 09:35:38;;;;;;;4.87;2.50;;;;;;;29.66;33.59;99237.38;4486221;31;20118;-66
2023/07/09 09:38:13;;;;;;;3.97;2.40;;;;;;;29.98;34.36;99234.81;4486098;31;20080;-66
2023/07/09 09:40:41;;;;;;;3.40;2.40;;;;;;;29.75;33.86;99243.97;4486121;32;20093;-66
2023/07/09 09:43:15;;;;;;;5.22;2.62;;;;;;;29.58;33.63;99235.12;4486084;31;20122;-66
2023/07/09 09:45:44;;;;;;;5.65;2.80;;;;;;;29.87;32.97;99236.59;4485961;31;20120;-66
2023/07/09 09:48:29;;;;;;;4.70;2.75;;;;;;;30.04;33.24;99239.22;4485893;32;20118;-66
2023/07/09 09:51:01;;;;;;;3.78;3.10;;;;;;;30.03;32.96;99231.34;4486086;31;20139;-66
2023/07/09 09:53:30;;;;;;;;;;;;;;;29.74;32.17;99232.34;4486233;31;20075;-66
2023/07/09 09:55:59;;;;;;;9.02;2.85;;;;;;;30.06;33.55;99241.66;4485916;32;20007;-66
2023/07/09 09:58:28;;;;;;;3.87;2.87;;;;;;;29.87;32.56;99236.59;4485975;31;20107;-66
2023/07/09 10:00:58;;;;;;;3.70;2.75;;;;;;;29.92;33.17;99235.84;4485848;31;20101;-66
2023/07/09 10:03:33;;;;;;;4.97;2.70;;;;;;;30.15;32.14;99239.31;4485864;32;20171;-66
2023/07/09 10:06:06;;;;;;;3.72;2.90;;;;;;;30.35;32.62;99230.59;4485648;31;20100;-66
2023/07/09 10:08:34;;;;;;;;;;;;;;;30.41;31.48;99232.31;4484976;32;20080;-66
2023/07/09 10:11:12;;;;;;;4.80;2.90;;;;;;;30.58;32.02;99227.59;4478374;31;19973;-66
2023/07/09 10:13:43;;;;;;;4.25;2.78;;;;;;;30.42;33.06;99229.34;4469048;32;20127;-66
2023/07/09 10:16:44;;;;;;;6.25;2.70;;;;;;;30.86;32.89;99222.13;4468904;32;20096;-66
2023/07/09 10:19:34;;;;;;;6.50;2.65;;;;;;;30.27;31.13;99219.16;4454583;32;20124;-66
2023/07/09 10:22:07;;;;;;;3.22;2.92;;;;;;;30.18;33.39;99212.59;4454914;32;20133;-66
2023/07/09 10:24:47;;;;;;;4.72;2.70;;;;;;;30.08;32.29;99226.00;4454553;32;20116;-66
2023/07/09 10:27:24;;;;;;;3.47;2.92;;;;;;;29.62;32.85;99236.25;4467819;32;20108;-66
2023/07/09 10:30:01;;;;;;;5.30;2.70;;;;;;;30.13;33.91;99225.22;4467748;32;20119;-66
2023/07/09 10:32:53;;;;;;;3.35;2.97;;;;;;;30.46;32.39;99218.00;4467390;32;20220;-66
2023/07/09 10:35:30;;;;;;;5.50;2.58;;;;;;;30.85;31.07;99220.50;4467554;32;20449;-66
2023/07/09 10:38:20;;;;;;;4.78;2.45;;;;;;;31.27;31.56;99219.69;4454488;32;20084;-66
2023/07/09 10:40:59;;;;;;;7.00;3.10;;;;;;;30.96;30.99;99225.72;4467373;32;20089;-66
2023/07/09 10:43:36;;;;;;;3.45;2.80;;;;;;;31.14;32.22;99224.50;4455763;32;20139;-66
2023/07/09 10:46:17;;;;;;;4.28;2.80;;;;;;;31.20;31.28;99221.81;4454520;32;20518;-66
2023/07/09 10:48:50;;;;;;;5.07;2.87;;;;;;;31.30;30.68;99228.09;4454597;32;20177;-66
2023/07/09 10:51:20;;;;;;;4.07;2.60;;;;;;;31.16;29.65;99213.41;4445946;32;20193;-66
2023/07/09 10:53:58;;;;;;;5.20;2.78;;;;;;;31.28;28.92;99216.72;4438101;32;20101;-66
2023/07/09 10:56:28;;;;;;;5.20;2.97;;;;;;;30.94;30.27;99218.94;4469736;32;20092;-66
2023/07/09 10:59:21;;;;;;;3.30;2.97;;;;;;;31.24;32.14;99220.22;4468514;32;20089;-66
2023/07/09 11:02:16;;;;;;;3.05;2.75;;;;;;;31.12;31.70;99212.31;4469852;32;20076;-66
2023/07/09 11:04:48;;;;;;;4.70;2.50;;;;;;;31.54;30.48;99216.84;4468990;32;20092;-66
2023/07/09 11:07:21;;;;;;;2.40;2.20;;;;;;;31.60;30.93;99220.41;4469794;32;20128;-66
2023/07/09 11:09:51;;;;;;;3.47;3.00;;;;;;;31.74;29.53;99210.72;4469738;32;20115;-66
2023/07/09 11:12:26;;;;;;;5.32;2.80;;;;;;;31.77;29.81;99217.50;4469877;32;20171;-66
2023/07/09 11:15:00;;;;;;;4.00;2.97;;;;;;;31.76;29.64;99207.75;4483845;32;20494;-66
2023/07/09 11:17:28;;;;;;;3.97;3.15;;;;;;;31.78;28.95;99211.00;4484158;32;20179;-66
2023/07/09 11:19:58;;;;;;;3.25;2.45;;;;;;;31.77;30.48;99210.19;4484066;32;20119;-66
2023/07/09 11:22:36;;;;;;;3.28;2.58;;;;;;;31.74;29.31;99209.91;4485504;31;20140;-66
2023/07/09 11:25:10;;;;;;;4.00;2.80;;;;;;;31.63;29.32;99203.66;4485158;32;20088;-66
2023/07/09 11:27:57;;;;;;;4.93;3.03;;;;;;;31.62;29.80;99202.00;4485457;31;20111;-66
2023/07/09 11:30:27;;;;;;;4.85;2.90;;;;;;;31.92;30.90;99204.00;4483970;32;20097;-66
2023/07/09 11:33:03;;;;;;;3.87;2.67;;;;;;;32.46;29.09;99200.03;4485307;31;20446;-66
2023/07/09 11:35:54;;;;;;;4.03;3.30;;;;;;;31.67;28.68;99200.16;4484310;31;20141;-66
2023/07/09 11:38:24;;;;;;;5.10;3.28;;;;;;;31.52;29.56;99200.03;4483844;32;20120;-66
2023/07/09 11:40:54;;;;;;;3.53;3.10;;;;;;;31.14;30.23;99193.91;4485176;32;20096;-66
2023/07/09 11:43:33;;;;;;;4.55;3.05;;;;;;;31.35;29.81;99196.72;4485379;31;20092;-66
2023/07/09 11:46:14;;;;;;;3.67;2.65;;;;;;;31.57;28.86;99200.09;4485247;31;20088;-66
2023/07/09 11:48:42;;;;;;;4.15;2.90;;;;;;;31.81;27.88;99195.03;4483630;32;20368;-66
2023/07/09 11:51:18;;;;;;;3.10;2.80;;;;;;;31.79;27.91;99197.19;4483831;32;20611;-66